createdAt,value
2019-05-09T00:01:03.860Z,9.40
2019-05-09T00:03:37.040Z,9.40
2019-05-09T00:06:09.943Z,9.40
2019-05-09T00:08:44.271Z,9.40
2019-05-09T00:11:17.177Z,9.40
2019-05-09T00:13:50.006Z,9.40
2019-05-09T00:16:23.628Z,9.40
2019-05-09T00:18:56.591Z,9.30
2019-05-09T00:21:35.095Z,9.20
2019-05-09T00:24:07.955Z,9.20
2019-05-09T00:26:40.765Z,9.10
2019-05-09T00:29:20.014Z,9.10
2019-05-09T00:31:59.641Z,9.00
2019-05-09T00:34:48.699Z,9.00
2019-05-09T00:37:43.085Z,8.90
2019-05-09T00:40:15.829Z,8.80
2019-05-09T00:42:48.632Z,8.70
2019-05-09T00:45:59.432Z,8.60
2019-05-09T00:48:53.330Z,8.60
2019-05-09T00:51:26.405Z,8.40
2019-05-09T00:53:59.230Z,8.30
2019-05-09T00:56:33.124Z,8.30
2019-05-09T00:59:06.078Z,8.20
2019-05-09T01:01:39.551Z,8.10
2019-05-09T01:04:13.670Z,8.10
2019-05-09T01:06:46.613Z,8.00
2019-05-09T01:09:19.573Z,8.10
2019-05-09T01:11:53.394Z,8.10
2019-05-09T01:14:26.328Z,8.10
2019-05-09T01:16:59.139Z,8.20
2019-05-09T01:19:33.868Z,8.20
2019-05-09T01:22:06.657Z,8.10
2019-05-09T01:24:39.827Z,8.10
2019-05-09T01:27:14.197Z,8.10
2019-05-09T01:29:48.267Z,8.10
2019-05-09T01:32:30.490Z,8.10
2019-05-09T01:35:03.911Z,8.10
2019-05-09T01:37:36.754Z,8.10
2019-05-09T01:40:09.817Z,8.00
2019-05-09T01:42:43.244Z,8.10
2019-05-09T01:45:16.380Z,8.10
2019-05-09T01:47:49.151Z,8.10
2019-05-09T01:50:23.307Z,8.30
2019-05-09T01:52:56.318Z,8.30
2019-05-09T01:55:48.440Z,8.40
2019-05-09T01:58:23.281Z,8.40
2019-05-09T02:00:56.148Z,8.40
2019-05-09T02:03:29.196Z,8.40
2019-05-09T02:06:03.555Z,8.40
2019-05-09T02:08:36.687Z,8.40
2019-05-09T02:11:09.663Z,8.30
2019-05-09T02:13:44.231Z,8.30
2019-05-09T02:16:36.778Z,8.30
2019-05-09T02:19:20.688Z,8.30
2019-05-09T02:21:53.533Z,8.30
2019-05-09T02:24:26.328Z,8.30
2019-05-09T02:26:59.172Z,8.30
2019-05-09T02:29:33.761Z,8.30
2019-05-09T02:32:06.741Z,8.30
2019-05-09T02:34:39.518Z,8.30
2019-05-09T02:37:12.306Z,8.30
2019-05-09T02:39:45.078Z,8.30
2019-05-09T02:42:19.596Z,8.30
2019-05-09T02:44:52.628Z,8.20
2019-05-09T02:47:28.682Z,8.10
2019-05-09T02:50:00.448Z,8.10
2019-05-09T02:52:33.228Z,8.10
2019-05-09T02:55:09.882Z,8.10
2019-05-09T02:57:42.544Z,8.10
2019-05-09T03:00:33.968Z,8.10
2019-05-09T03:03:15.012Z,8.10
2019-05-09T03:05:48.706Z,8.10
2019-05-09T03:08:21.786Z,8.10
2019-05-09T03:10:54.602Z,8.10
2019-05-09T03:13:29.101Z,8.10
2019-05-09T03:16:08.948Z,8.10
2019-05-09T03:18:41.765Z,8.10
2019-05-09T03:21:24.820Z,8.10
2019-05-09T03:23:59.214Z,8.10
2019-05-09T03:26:38.471Z,8.10
2019-05-09T03:29:35.769Z,8.10
2019-05-09T03:32:09.451Z,8.10
2019-05-09T03:34:42.440Z,8.10
2019-05-09T03:37:17.450Z,8.10
2019-05-09T03:39:49.989Z,8.20
2019-05-09T03:42:36.469Z,8.30
2019-05-09T03:44:58.204Z,8.30
2019-05-09T03:47:47.840Z,8.40
2019-05-09T03:50:20.764Z,8.50
2019-05-09T03:52:53.634Z,8.60
2019-05-09T03:55:31.009Z,8.60
2019-05-09T03:58:09.129Z,8.70
2019-05-09T04:00:41.933Z,8.70
2019-05-09T04:03:14.772Z,8.80
2019-05-09T04:05:58.412Z,8.80
2019-05-09T04:08:22.334Z,8.80
2019-05-09T04:10:55.133Z,8.70
2019-05-09T04:13:33.516Z,8.40
2019-05-09T04:16:07.512Z,8.30
2019-05-09T04:18:40.572Z,8.10
2019-05-09T04:21:13.372Z,7.90
2019-05-09T04:23:48.071Z,7.90
2019-05-09T04:26:45.222Z,7.90
2019-05-09T04:29:18.455Z,7.80
2019-05-09T04:31:51.460Z,7.80
2019-05-09T04:34:24.229Z,7.80
2019-05-09T04:36:57.746Z,7.90
2019-05-09T04:39:30.513Z,8.00
2019-05-09T04:42:05.443Z,8.00
2019-05-09T04:44:57.315Z,8.20
2019-05-09T04:47:24.695Z,8.50
2019-05-09T04:49:58.406Z,9.60
2019-05-09T04:52:31.347Z,11.00
2019-05-09T04:55:04.630Z,12.00
2019-05-09T04:57:38.275Z,12.90
2019-05-09T05:00:13.396Z,13.60
2019-05-09T05:02:48.908Z,14.30
2019-05-09T05:05:21.716Z,14.80
2019-05-09T05:07:54.553Z,15.40
2019-05-09T05:10:27.430Z,15.60
2019-05-09T05:13:00.289Z,15.70
2019-05-09T05:15:33.108Z,15.40
2019-05-09T05:18:05.987Z,14.50
2019-05-09T05:20:38.806Z,14.10
2019-05-09T05:23:19.735Z,14.00
2019-05-09T05:25:52.553Z,14.80
2019-05-09T05:28:27.682Z,14.80
2019-05-09T05:31:00.084Z,13.70
2019-05-09T05:33:39.563Z,13.10
2019-05-09T05:36:12.901Z,12.50
2019-05-09T05:38:47.898Z,12.00
2019-05-09T05:41:20.522Z,11.60
2019-05-09T05:43:53.332Z,11.80
2019-05-09T05:46:39.253Z,13.30
2019-05-09T05:49:12.102Z,14.50
2019-05-09T05:51:50.463Z,13.90
2019-05-09T05:54:23.273Z,12.80
2019-05-09T05:56:57.819Z,13.50
2019-05-09T05:59:30.851Z,14.40
2019-05-09T06:02:03.666Z,14.30
2019-05-09T06:04:38.115Z,13.60
2019-05-09T06:07:11.235Z,13.00
2019-05-09T06:09:44.087Z,12.40
2019-05-09T06:12:18.484Z,12.20
2019-05-09T06:14:51.550Z,12.10
2019-05-09T06:17:24.365Z,12.00
2019-05-09T06:19:58.971Z,12.00
2019-05-09T06:22:31.914Z,11.90
2019-05-09T06:25:09.230Z,11.70
2019-05-09T06:27:42.298Z,11.60
2019-05-09T06:30:28.147Z,11.30
2019-05-09T06:33:04.651Z,11.30
2019-05-09T06:35:37.927Z,11.40
2019-05-09T06:38:10.740Z,11.30
2019-05-09T06:40:47.026Z,11.30
2019-05-09T06:43:22.919Z,11.30
2019-05-09T06:46:21.199Z,11.20
2019-05-09T06:48:54.510Z,11.20
2019-05-09T06:51:27.773Z,11.30
2019-05-09T06:54:00.761Z,11.30
2019-05-09T06:56:33.606Z,11.30
2019-05-09T06:59:07.623Z,11.20
2019-05-09T07:01:52.810Z,11.10
2019-05-09T07:04:48.080Z,11.10
2019-05-09T07:07:37.395Z,11.20
2019-05-09T07:10:10.864Z,11.10
2019-05-09T07:12:43.774Z,11.20
2019-05-09T07:15:17.739Z,11.20
2019-05-09T07:17:50.744Z,11.20
2019-05-09T07:20:23.557Z,11.30
2019-05-09T07:22:58.364Z,11.60
2019-05-09T07:26:09.097Z,11.70
2019-05-09T07:28:42.104Z,11.50
2019-05-09T07:31:28.665Z,11.00
2019-05-09T07:34:23.882Z,10.80
2019-05-09T07:36:58.078Z,10.70
2019-05-09T07:39:31.110Z,10.70
2019-05-09T07:42:03.935Z,10.80
2019-05-09T07:44:46.183Z,10.70
2019-05-09T07:47:11.545Z,10.80
2019-05-09T07:49:44.364Z,10.90
2019-05-09T07:52:18.564Z,11.00
2019-05-09T07:54:51.659Z,11.00
2019-05-09T07:57:24.491Z,10.90
2019-05-09T07:59:58.396Z,11.00
2019-05-09T08:02:31.504Z,10.90
2019-05-09T08:05:04.453Z,11.00
2019-05-09T08:07:38.084Z,11.20
2019-05-09T08:10:11.663Z,11.30
2019-05-09T08:12:44.488Z,11.30
2019-05-09T08:15:19.986Z,11.30
2019-05-09T08:17:52.103Z,11.20
2019-05-09T08:20:24.944Z,11.10
2019-05-09T08:23:01.672Z,10.90
2019-05-09T08:25:32.516Z,10.80
2019-05-09T08:28:05.351Z,10.80
2019-05-09T08:30:40.419Z,10.80
2019-05-09T08:33:12.951Z,10.90
2019-05-09T08:35:49.917Z,11.00
2019-05-09T08:38:20.551Z,11.10
2019-05-09T08:41:09.933Z,11.10
2019-05-09T08:43:42.727Z,11.10
2019-05-09T08:46:17.897Z,11.10
2019-05-09T08:48:50.257Z,11.20
2019-05-09T08:52:02.635Z,11.30
2019-05-09T08:54:38.056Z,11.20
2019-05-09T08:57:11.294Z,11.20
2019-05-09T08:59:47.008Z,11.30
2019-05-09T09:02:22.172Z,11.20
2019-05-09T09:04:53.659Z,11.30
2019-05-09T09:07:29.654Z,11.30
2019-05-09T09:10:01.194Z,11.30
2019-05-09T09:12:34.674Z,11.20
2019-05-09T09:15:08.176Z,11.20
2019-05-09T09:17:41.003Z,11.30
2019-05-09T09:20:14.267Z,11.40
2019-05-09T09:22:47.970Z,11.60
2019-05-09T09:25:20.982Z,11.70
2019-05-09T09:27:53.874Z,11.90
2019-05-09T09:30:29.250Z,12.10
2019-05-09T09:33:01.452Z,12.10
2019-05-09T09:35:34.274Z,12.30
2019-05-09T09:38:09.332Z,12.30
2019-05-09T09:40:41.826Z,12.20
2019-05-09T09:43:14.651Z,12.00
2019-05-09T09:45:48.215Z,11.80
2019-05-09T09:48:22.236Z,11.70
2019-05-09T09:50:55.209Z,11.70
2019-05-09T09:53:28.042Z,11.70
2019-05-09T09:56:00.875Z,11.70
2019-05-09T09:58:33.708Z,11.70
2019-05-09T10:01:18.185Z,11.60
2019-05-09T10:04:15.276Z,11.40
2019-05-09T10:06:34.128Z,11.20
2019-05-09T10:09:09.368Z,11.20
2019-05-09T10:11:43.544Z,11.20
2019-05-09T10:14:22.222Z,11.20
2019-05-09T10:17:21.313Z,11.20
2019-05-09T10:20:21.279Z,11.30
2019-05-09T10:23:00.354Z,11.40
2019-05-09T10:25:28.964Z,11.70
2019-05-09T10:28:02.012Z,11.90
2019-05-09T10:30:34.868Z,12.20
2019-05-09T10:33:09.170Z,12.30
2019-05-09T10:35:42.346Z,12.30
2019-05-09T10:38:15.151Z,12.60
2019-05-09T10:40:48.741Z,12.60
2019-05-09T10:43:35.632Z,12.60
2019-05-09T10:46:22.454Z,12.50
2019-05-09T10:49:00.134Z,12.30
2019-05-09T10:51:32.991Z,12.00
2019-05-09T10:54:08.126Z,11.90
2019-05-09T10:56:40.659Z,12.00
2019-05-09T10:59:13.517Z,11.90
2019-05-09T11:01:49.376Z,11.90
2019-05-09T11:04:21.172Z,11.90
2019-05-09T11:06:54.126Z,11.90
2019-05-09T11:09:29.121Z,11.90
2019-05-09T11:12:01.785Z,11.90
2019-05-09T11:14:37.472Z,12.10
2019-05-09T11:17:17.624Z,12.40
2019-05-09T11:19:44.154Z,12.60
2019-05-09T11:22:18.332Z,12.50
2019-05-09T11:24:51.630Z,12.30
2019-05-09T11:27:24.561Z,12.40
2019-05-09T11:29:57.971Z,12.30
2019-05-09T11:32:30.952Z,12.40
2019-05-09T11:35:04.882Z,12.50
2019-05-09T11:37:38.406Z,12.60
2019-05-09T11:40:12.390Z,12.80
2019-05-09T11:42:45.233Z,12.70
2019-05-09T11:45:18.158Z,12.60
2019-05-09T11:47:51.014Z,12.50
2019-05-09T11:50:23.859Z,12.30
2019-05-09T11:52:59.733Z,12.40
2019-05-09T11:55:35.928Z,12.30
2019-05-09T11:58:08.383Z,12.40
2019-05-09T12:00:40.975Z,12.50
2019-05-09T12:03:13.800Z,12.60
2019-05-09T12:05:47.654Z,12.60
2019-05-09T12:08:20.597Z,12.50
2019-05-09T12:10:53.483Z,12.50
2019-05-09T12:13:26.329Z,12.40
2019-05-09T12:15:59.179Z,12.40
2019-05-09T12:18:32.049Z,12.40
2019-05-09T12:21:04.924Z,12.30
2019-05-09T12:23:37.909Z,12.30
2019-05-09T12:26:10.941Z,12.30
2019-05-09T12:28:43.789Z,12.30
2019-05-09T12:31:18.219Z,12.20
2019-05-09T12:33:51.424Z,12.00
2019-05-09T12:36:24.295Z,11.70
2019-05-09T12:38:59.015Z,11.70
2019-05-09T12:41:32.053Z,11.60
2019-05-09T12:44:04.923Z,11.50
2019-05-09T12:46:39.291Z,11.40
2019-05-09T12:49:12.585Z,11.30
2019-05-09T12:51:45.470Z,11.30
2019-05-09T12:54:19.086Z,11.30
2019-05-09T12:56:52.101Z,11.30
2019-05-09T12:59:24.905Z,11.40
2019-05-09T13:01:58.189Z,11.40
2019-05-09T13:04:31.212Z,11.30
2019-05-09T13:07:04.107Z,11.30
2019-05-09T13:09:36.987Z,11.20
2019-05-09T13:12:09.892Z,11.20
2019-05-09T13:14:42.754Z,11.20
2019-05-09T13:17:43.801Z,11.20
2019-05-09T13:20:18.020Z,11.10
2019-05-09T13:22:50.992Z,11.10
2019-05-09T13:25:23.845Z,11.00
2019-05-09T13:27:58.222Z,11.10
2019-05-09T13:30:31.152Z,11.00
2019-05-09T13:33:07.250Z,11.10
2019-05-09T13:35:39.419Z,11.00
2019-05-09T13:38:13.557Z,11.00
2019-05-09T13:40:52.870Z,11.10
2019-05-09T13:43:21.168Z,11.10
2019-05-09T13:45:54.078Z,11.10
2019-05-09T13:48:54.992Z,11.10
2019-05-09T13:51:01.806Z,11.10
2019-05-09T13:53:34.665Z,11.10
2019-05-09T13:56:08.474Z,11.10
2019-05-09T13:58:41.544Z,11.20
2019-05-09T14:01:14.499Z,11.30
2019-05-09T14:03:49.073Z,11.40
2019-05-09T14:06:22.134Z,11.30
2019-05-09T14:08:55.043Z,11.30
2019-05-09T14:11:29.179Z,11.30
2019-05-09T14:14:02.220Z,11.40
2019-05-09T14:16:35.086Z,11.50
2019-05-09T14:19:30.027Z,11.60
2019-05-09T14:21:43.829Z,11.50
2019-05-09T14:24:19.205Z,11.60
2019-05-09T14:26:51.444Z,11.60
2019-05-09T14:29:24.284Z,11.60
2019-05-09T14:31:57.131Z,11.60
2019-05-09T14:34:30.334Z,11.50
2019-05-09T14:37:03.235Z,11.50
2019-05-09T14:39:38.364Z,11.60
2019-05-09T14:42:10.878Z,11.60
2019-05-09T14:44:43.741Z,11.60
2019-05-09T14:47:17.662Z,11.80
2019-05-09T14:49:51.432Z,11.80
2019-05-09T14:52:24.338Z,11.90
2019-05-09T14:54:58.187Z,12.00
2019-05-09T14:57:31.160Z,12.30
2019-05-09T15:00:04.467Z,12.60
2019-05-09T15:02:38.917Z,13.00
2019-05-09T15:05:12.320Z,13.60
2019-05-09T15:07:47.511Z,13.90
2019-05-09T15:10:20.010Z,14.50
2019-05-09T15:12:52.934Z,14.50
2019-05-09T15:15:29.142Z,14.50
2019-05-09T15:18:00.694Z,14.60
2019-05-09T15:20:33.836Z,14.50
2019-05-09T15:23:08.614Z,14.60
2019-05-09T15:25:41.486Z,15.00
2019-05-09T15:28:14.366Z,15.20
2019-05-09T15:30:48.938Z,15.10
2019-05-09T15:33:21.964Z,15.00
2019-05-09T15:35:54.820Z,14.90
2019-05-09T15:38:29.042Z,14.80
2019-05-09T15:41:02.157Z,14.90
2019-05-09T15:43:35.071Z,14.80
2019-05-09T15:46:27.901Z,15.00
2019-05-09T15:49:00.863Z,15.00
2019-05-09T15:51:33.728Z,14.90
2019-05-09T15:54:08.273Z,14.60
2019-05-09T15:56:44.124Z,14.60
2019-05-09T15:59:18.234Z,14.60
2019-05-09T16:01:50.833Z,14.60
2019-05-09T16:04:23.822Z,14.70
2019-05-09T16:06:56.928Z,14.80
2019-05-09T16:09:30.011Z,14.70
2019-05-09T16:12:02.877Z,14.50
2019-05-09T16:14:37.944Z,14.50
2019-05-09T16:17:10.553Z,14.70
2019-05-09T16:19:43.358Z,14.90
2019-05-09T16:22:18.774Z,14.80
2019-05-09T16:24:50.882Z,14.40
2019-05-09T16:27:23.646Z,14.30
2019-05-09T16:29:57.985Z,14.30
2019-05-09T16:32:30.808Z,14.60
2019-05-09T16:35:03.777Z,14.70
2019-05-09T16:37:56.772Z,14.70
2019-05-09T16:40:11.603Z,14.70
2019-05-09T16:42:44.581Z,14.80
2019-05-09T16:45:18.208Z,14.90
2019-05-09T16:47:51.409Z,14.80
2019-05-09T16:50:24.397Z,14.70
2019-05-09T16:52:58.480Z,14.50
2019-05-09T16:55:35.017Z,14.40
2019-05-09T16:58:08.910Z,14.20
2019-05-09T17:00:49.321Z,14.10
2019-05-09T17:03:22.212Z,14.00
2019-05-09T17:05:55.098Z,13.90
2019-05-09T17:08:28.421Z,13.90
2019-05-09T17:11:01.623Z,13.90
2019-05-09T17:13:34.519Z,13.90
2019-05-09T17:16:07.718Z,14.00
2019-05-09T17:18:40.615Z,14.20
2019-05-09T17:21:30.816Z,14.30
2019-05-09T17:24:05.655Z,14.60
2019-05-09T17:26:38.585Z,14.60
2019-05-09T17:29:11.393Z,14.60
2019-05-09T17:31:45.033Z,14.60
2019-05-09T17:34:18.183Z,14.50
2019-05-09T17:36:51.459Z,14.50
2019-05-09T17:39:24.666Z,14.40
2019-05-09T17:41:58.249Z,14.30
2019-05-09T17:44:31.494Z,14.20
2019-05-09T17:47:04.350Z,14.00
2019-05-09T17:49:37.569Z,14.00
2019-05-09T17:52:10.588Z,13.90
2019-05-09T17:54:43.552Z,13.80
2019-05-09T17:57:18.774Z,13.70
2019-05-09T17:59:51.524Z,13.60
2019-05-09T18:02:24.534Z,13.40
2019-05-09T18:04:58.245Z,13.30
2019-05-09T18:07:31.288Z,13.10
2019-05-09T18:10:07.611Z,13.10
2019-05-09T18:12:40.597Z,13.10
2019-05-09T18:15:13.678Z,13.10
2019-05-09T18:17:47.883Z,13.10
2019-05-09T18:20:21.348Z,13.00
2019-05-09T18:22:54.246Z,13.00
2019-05-09T18:25:27.185Z,13.00
2019-05-09T18:28:00.152Z,13.00
2019-05-09T18:30:33.101Z,12.90
2019-05-09T18:33:14.033Z,12.90
2019-05-09T18:35:48.145Z,12.80
2019-05-09T18:38:30.872Z,12.80
2019-05-09T18:41:06.995Z,12.80
2019-05-09T18:43:38.687Z,12.70
2019-05-09T18:46:12.893Z,12.70
2019-05-09T18:48:47.536Z,12.60
2019-05-09T18:51:21.484Z,12.60
2019-05-09T18:53:56.152Z,12.50
2019-05-09T18:56:29.142Z,12.50
2019-05-09T18:59:02.171Z,12.40
2019-05-09T19:01:35.481Z,12.40
2019-05-09T19:04:08.317Z,12.40
2019-05-09T19:06:41.234Z,12.30
2019-05-09T19:09:14.182Z,12.30
2019-05-09T19:11:47.177Z,12.30
2019-05-09T19:14:22.134Z,12.30
2019-05-09T19:17:17.570Z,12.20
2019-05-09T19:20:17.176Z,12.10
2019-05-09T19:22:50.004Z,11.90
2019-05-09T19:25:23.058Z,11.80
2019-05-09T19:27:56.080Z,11.70
2019-05-09T19:30:29.026Z,11.60
2019-05-09T19:33:01.989Z,11.50
2019-05-09T19:35:35.017Z,11.40
2019-05-09T19:38:08.001Z,11.40
2019-05-09T19:40:41.045Z,11.40
2019-05-09T19:43:14.009Z,11.40
2019-05-09T19:45:46.975Z,11.40
2019-05-09T19:48:19.821Z,11.50
2019-05-09T19:50:52.697Z,11.50
2019-05-09T19:53:25.598Z,11.60
2019-05-09T19:55:58.531Z,11.70
2019-05-09T19:58:31.400Z,11.70
2019-05-09T20:01:04.407Z,11.70
2019-05-09T20:03:37.333Z,11.70
2019-05-09T20:06:10.334Z,11.70
2019-05-09T20:08:43.226Z,11.70
2019-05-09T20:11:24.868Z,11.70
2019-05-09T20:14:10.284Z,11.70
2019-05-09T20:16:46.229Z,11.80
2019-05-09T20:19:19.092Z,11.70
2019-05-09T20:21:52.217Z,11.80
2019-05-09T20:24:25.329Z,11.70
2019-05-09T20:26:58.346Z,11.70
2019-05-09T20:29:31.349Z,11.70
2019-05-09T20:32:04.378Z,11.60
2019-05-09T20:34:37.402Z,11.60
2019-05-09T20:37:10.321Z,11.50
2019-05-09T20:39:43.367Z,11.50
2019-05-09T20:42:16.348Z,11.50
2019-05-09T20:44:50.327Z,11.50
2019-05-09T20:47:23.183Z,11.50
2019-05-09T20:49:56.084Z,11.50
2019-05-09T20:52:30.084Z,11.50
2019-05-09T20:55:03.444Z,11.50
2019-05-09T20:57:36.436Z,11.50
2019-05-09T21:00:09.658Z,11.50
2019-05-09T21:02:42.766Z,11.60
2019-05-09T21:05:15.767Z,11.60
2019-05-09T21:07:49.204Z,11.60
2019-05-09T21:10:22.092Z,11.50
2019-05-09T21:12:55.940Z,11.60
2019-05-09T21:15:28.892Z,11.70
2019-05-09T21:18:01.882Z,11.70
2019-05-09T21:20:34.826Z,11.70
2019-05-09T21:23:07.740Z,11.70
2019-05-09T21:25:40.584Z,11.70
2019-05-09T21:28:13.513Z,11.60
2019-05-09T21:30:46.398Z,11.50
2019-05-09T21:33:19.229Z,11.50
2019-05-09T21:35:52.177Z,11.50
2019-05-09T21:38:25.099Z,11.40
2019-05-09T21:40:57.995Z,11.30
2019-05-09T21:43:30.859Z,11.20
2019-05-09T21:46:03.668Z,11.20
2019-05-09T21:48:38.635Z,11.20
2019-05-09T21:51:11.418Z,11.20
2019-05-09T21:53:44.268Z,11.20
2019-05-09T21:56:17.118Z,11.20
2019-05-09T21:58:49.964Z,11.20
2019-05-09T22:01:23.407Z,11.20
2019-05-09T22:03:56.886Z,11.20
2019-05-09T22:06:29.768Z,11.20
2019-05-09T22:09:07.383Z,11.20
2019-05-09T22:11:40.211Z,11.10
2019-05-09T22:14:13.100Z,11.20
2019-05-09T22:16:47.859Z,11.10
2019-05-09T22:19:20.719Z,11.20
2019-05-09T22:21:53.576Z,11.20
2019-05-09T22:24:26.514Z,11.20
2019-05-09T22:26:59.333Z,11.20
2019-05-09T22:29:32.238Z,11.00
2019-05-09T22:32:05.012Z,11.00
2019-05-09T22:34:37.865Z,11.00
2019-05-09T22:37:10.695Z,11.00
2019-05-09T22:39:43.592Z,11.10
2019-05-09T22:42:16.600Z,11.10
2019-05-09T22:44:49.386Z,11.20
2019-05-09T22:47:22.255Z,11.20
2019-05-09T22:49:55.166Z,11.20
2019-05-09T22:52:27.981Z,11.20
2019-05-09T22:55:00.824Z,11.20
2019-05-09T22:57:33.804Z,11.20
2019-05-09T23:00:08.489Z,11.30
2019-05-09T23:02:43.364Z,11.20
2019-05-09T23:05:16.348Z,11.20
2019-05-09T23:07:49.173Z,11.20
2019-05-09T23:10:21.965Z,11.20
2019-05-09T23:12:54.808Z,11.30
2019-05-09T23:15:27.637Z,11.20
2019-05-09T23:18:00.479Z,11.20
2019-05-09T23:20:47.781Z,11.30
2019-05-09T23:23:28.266Z,11.30
2019-05-09T23:26:01.145Z,11.20
2019-05-09T23:28:33.973Z,11.20
2019-05-09T23:31:10.701Z,11.10
2019-05-09T23:33:43.680Z,11.10
2019-05-09T23:36:16.494Z,11.10
2019-05-09T23:39:07.372Z,10.90
2019-05-09T23:41:40.211Z,10.80
2019-05-09T23:44:13.086Z,10.70
2019-05-09T23:46:46.091Z,10.70
2019-05-09T23:49:18.902Z,10.60
2019-05-09T23:51:51.706Z,10.50
2019-05-09T23:54:46.757Z,10.40
2019-05-09T23:57:36.131Z,10.40
